createdAt,value
2022-09-30T00:01:42.354Z,9.35
2022-09-30T00:04:14.501Z,9.30
2022-09-30T00:06:44.560Z,9.30
2022-09-30T00:09:13.264Z,9.32
2022-09-30T00:11:42.838Z,9.36
2022-09-30T00:14:16.456Z,9.22
2022-09-30T00:16:46.073Z,9.27
2022-09-30T00:19:14.783Z,9.23
2022-09-30T00:21:44.739Z,9.13
2022-09-30T00:24:12.999Z,9.17
2022-09-30T00:26:41.642Z,9.18
2022-09-30T00:29:11.949Z,9.19
2022-09-30T00:31:40.541Z,9.17
2022-09-30T00:34:09.486Z,9.17
2022-09-30T00:36:41.483Z,9.19
2022-09-30T00:39:14.901Z,9.13
2022-09-30T00:41:43.750Z,9.13
2022-09-30T00:44:48.081Z,9.07
2022-09-30T00:47:34.092Z,9.04
2022-09-30T00:50:06.254Z,9.05
2022-09-30T00:52:35.409Z,9.08
2022-09-30T00:55:11.162Z,9.01
2022-09-30T00:57:41.170Z,8.99
2022-09-30T01:00:10.258Z,8.98
2022-09-30T01:02:38.606Z,8.97
2022-09-30T01:05:09.856Z,8.96
2022-09-30T01:07:38.899Z,8.92
2022-09-30T01:10:09.387Z,8.88
2022-09-30T01:12:37.891Z,9.01
2022-09-30T01:15:06.870Z,9.01
2022-09-30T01:17:47.256Z,8.92
2022-09-30T01:20:42.558Z,8.85
2022-09-30T01:23:33.752Z,8.83
2022-09-30T01:26:38.759Z,8.73
2022-09-30T01:29:30.190Z,8.83
2022-09-30T01:32:08.718Z,8.83
2022-09-30T01:34:45.927Z,8.88
2022-09-30T01:37:24.915Z,8.87
2022-09-30T01:40:02.157Z,8.88
2022-09-30T01:42:40.456Z,8.87
2022-09-30T01:45:14.862Z,8.88
2022-09-30T01:47:51.823Z,8.85
2022-09-30T01:50:24.817Z,8.84
2022-09-30T01:52:59.802Z,8.81
2022-09-30T01:55:33.397Z,8.85
2022-09-30T01:58:07.893Z,8.87
2022-09-30T02:00:41.744Z,8.76
2022-09-30T02:03:17.895Z,8.73
2022-09-30T02:05:52.477Z,8.73
2022-09-30T02:08:26.275Z,8.66
2022-09-30T02:10:59.298Z,8.71
2022-09-30T02:13:35.217Z,8.68
2022-09-30T02:16:13.245Z,8.68
2022-09-30T02:18:46.327Z,8.60
2022-09-30T02:21:19.236Z,8.67
2022-09-30T02:23:51.203Z,8.69
2022-09-30T02:26:23.449Z,8.59
2022-09-30T02:28:55.446Z,8.69
2022-09-30T02:31:26.391Z,8.66
2022-09-30T02:34:01.298Z,8.68
2022-09-30T02:36:33.301Z,8.68
2022-09-30T02:39:04.575Z,8.69
2022-09-30T02:41:38.799Z,8.69
2022-09-30T02:44:07.618Z,8.71
2022-09-30T02:46:45.863Z,8.66
2022-09-30T02:49:24.524Z,8.68
2022-09-30T02:52:07.752Z,8.69
2022-09-30T02:54:41.660Z,8.70
2022-09-30T02:57:19.716Z,8.66
2022-09-30T02:59:49.210Z,8.66
2022-09-30T03:02:17.682Z,8.61
2022-09-30T03:04:49.427Z,8.57
2022-09-30T03:07:18.348Z,8.61
2022-09-30T03:09:46.929Z,8.61
2022-09-30T03:12:27.933Z,8.58
2022-09-30T03:15:21.177Z,8.55
2022-09-30T03:18:15.145Z,8.54
2022-09-30T03:21:04.470Z,8.55
2022-09-30T03:23:47.798Z,8.54
2022-09-30T03:26:28.301Z,8.53
2022-09-30T03:29:08.369Z,8.41
2022-09-30T03:31:49.361Z,8.42
2022-09-30T03:34:27.956Z,8.42
2022-09-30T03:37:05.279Z,8.40
2022-09-30T03:39:47.437Z,8.42
2022-09-30T03:42:22.913Z,8.41
2022-09-30T03:45:01.184Z,8.44
2022-09-30T03:47:32.938Z,8.48
2022-09-30T03:50:05.295Z,8.48
2022-09-30T03:52:36.325Z,8.49
2022-09-30T03:55:08.508Z,8.46
2022-09-30T03:57:36.838Z,8.52
2022-09-30T04:00:06.419Z,8.48
2022-09-30T04:02:38.173Z,8.53
2022-09-30T04:05:07.853Z,8.57
2022-09-30T04:07:37.619Z,8.55
2022-09-30T04:10:07.198Z,8.53
2022-09-30T04:12:35.646Z,8.57
2022-09-30T04:15:04.212Z,8.59
2022-09-30T04:17:32.371Z,8.56
2022-09-30T04:20:00.730Z,8.53
2022-09-30T04:22:28.883Z,8.58
2022-09-30T04:24:58.707Z,8.59
2022-09-30T04:27:27.341Z,8.61
2022-09-30T04:29:55.359Z,8.59
2022-09-30T04:32:23.687Z,8.59
2022-09-30T04:34:52.015Z,8.66
2022-09-30T04:37:20.182Z,8.68
2022-09-30T04:39:48.549Z,8.61
2022-09-30T04:42:18.408Z,8.65
2022-09-30T04:44:46.600Z,8.62
2022-09-30T04:47:15.273Z,8.60
2022-09-30T04:49:43.614Z,8.56
2022-09-30T04:52:11.917Z,8.59
2022-09-30T04:54:40.057Z,8.61
2022-09-30T04:57:08.531Z,8.62
2022-09-30T04:59:38.023Z,8.63
2022-09-30T05:02:06.678Z,8.67
2022-09-30T05:04:35.165Z,8.70
2022-09-30T05:07:03.890Z,8.73
2022-09-30T05:09:32.173Z,8.79
2022-09-30T05:12:02.427Z,8.79
2022-09-30T05:14:30.673Z,8.79
2022-09-30T05:17:01.122Z,8.78
2022-09-30T05:19:29.420Z,8.83
2022-09-30T05:21:58.159Z,8.83
2022-09-30T05:24:26.535Z,8.86
2022-09-30T05:26:55.900Z,8.84
2022-09-30T05:29:24.333Z,8.88
2022-09-30T05:31:52.743Z,8.83
2022-09-30T05:34:22.990Z,8.93
2022-09-30T05:36:51.267Z,8.96
2022-09-30T05:39:19.562Z,8.98
2022-09-30T05:41:47.969Z,9.00
2022-09-30T05:44:16.356Z,8.92
2022-09-30T05:46:44.794Z,8.87
2022-09-30T05:49:13.053Z,8.86
2022-09-30T05:51:43.017Z,8.83
2022-09-30T05:54:11.487Z,8.80
2022-09-30T05:56:42.171Z,8.77
2022-09-30T05:59:10.260Z,8.77
2022-09-30T06:01:39.008Z,8.73
2022-09-30T06:04:07.177Z,8.76
2022-09-30T06:06:35.619Z,8.80
2022-09-30T06:09:05.346Z,8.81
2022-09-30T06:11:35.093Z,8.90
2022-09-30T06:14:03.245Z,8.93
2022-09-30T06:16:32.391Z,8.94
2022-09-30T06:19:00.988Z,8.96
2022-09-30T06:21:29.839Z,9.02
2022-09-30T06:23:58.433Z,9.05
2022-09-30T06:26:28.544Z,9.09
2022-09-30T06:28:57.176Z,9.16
2022-09-30T06:31:25.560Z,9.16
2022-09-30T06:33:54.330Z,9.24
2022-09-30T06:36:22.498Z,9.27
2022-09-30T06:38:54.689Z,9.29
2022-09-30T06:41:24.625Z,9.31
2022-09-30T06:43:55.136Z,9.42
2022-09-30T06:46:29.854Z,9.51
2022-09-30T06:49:11.379Z,9.53
2022-09-30T06:51:44.333Z,9.58
2022-09-30T06:54:13.691Z,9.72
2022-09-30T06:56:41.984Z,9.77
2022-09-30T06:59:12.317Z,9.75
2022-09-30T07:01:42.317Z,9.85
2022-09-30T07:04:11.964Z,9.87
2022-09-30T07:06:42.129Z,9.96
2022-09-30T07:09:12.123Z,10.00
2022-09-30T07:11:41.093Z,10.12
2022-09-30T07:14:13.721Z,10.18
2022-09-30T07:16:42.107Z,10.36
2022-09-30T07:19:12.772Z,10.43
2022-09-30T07:21:44.225Z,10.54
2022-09-30T07:24:12.412Z,10.58
2022-09-30T07:26:40.949Z,10.66
2022-09-30T07:29:09.927Z,10.70
2022-09-30T07:31:39.929Z,10.71
2022-09-30T07:34:09.719Z,10.78
2022-09-30T07:36:40.454Z,10.84
2022-09-30T07:39:11.172Z,10.92
2022-09-30T07:41:41.047Z,10.99
2022-09-30T07:44:13.512Z,10.98
2022-09-30T07:46:43.936Z,11.07
2022-09-30T07:49:15.073Z,11.11
2022-09-30T07:51:45.741Z,11.04
2022-09-30T07:54:16.406Z,11.05
2022-09-30T07:57:08.694Z,11.19
2022-09-30T07:59:37.812Z,11.17
2022-09-30T08:02:09.010Z,11.26
2022-09-30T08:04:41.562Z,11.15
2022-09-30T08:07:12.049Z,11.32
2022-09-30T08:09:40.200Z,11.29
2022-09-30T08:12:10.974Z,11.25
2022-09-30T08:14:39.619Z,11.38
2022-09-30T08:17:09.094Z,11.45
2022-09-30T08:19:38.282Z,11.55
2022-09-30T08:22:06.723Z,11.61
2022-09-30T08:24:35.012Z,11.65
2022-09-30T08:27:03.169Z,11.64
2022-09-30T08:32:21.507Z,11.81
2022-09-30T08:34:49.978Z,11.88
2022-09-30T08:37:18.491Z,11.94
2022-09-30T08:39:48.612Z,11.98
2022-09-30T08:42:40.571Z,12.00
2022-09-30T08:45:27.569Z,12.11
2022-09-30T08:48:12.703Z,12.23
2022-09-30T08:50:50.672Z,12.19
2022-09-30T08:53:25.402Z,12.31
2022-09-30T08:55:57.211Z,12.46
2022-09-30T08:58:29.657Z,12.56
2022-09-30T09:01:05.561Z,12.50
2022-09-30T09:03:35.731Z,12.52
2022-09-30T09:06:16.757Z,12.72
2022-09-30T09:09:03.534Z,12.81
2022-09-30T09:11:47.568Z,12.94
2022-09-30T09:14:27.870Z,13.21
2022-09-30T09:17:10.671Z,13.47
2022-09-30T09:19:48.858Z,13.70
2022-09-30T09:22:22.462Z,13.84
2022-09-30T09:24:55.072Z,14.07
2022-09-30T09:27:31.689Z,14.16
2022-09-30T09:30:07.281Z,14.06
2022-09-30T09:32:36.273Z,14.06
2022-09-30T09:35:15.872Z,14.16
2022-09-30T09:38:10.848Z,14.33
2022-09-30T09:40:57.700Z,14.55
2022-09-30T09:43:38.712Z,14.63
2022-09-30T09:46:17.130Z,14.72
2022-09-30T09:48:45.942Z,14.84
2022-09-30T09:51:25.913Z,14.74
2022-09-30T09:53:58.249Z,14.78
2022-09-30T09:56:32.433Z,14.86
2022-09-30T09:59:21.901Z,15.03
2022-09-30T10:01:54.242Z,15.06
2022-09-30T10:04:26.310Z,15.01
2022-09-30T10:07:00.254Z,15.07
2022-09-30T10:09:34.745Z,15.15
2022-09-30T10:12:28.827Z,15.22
2022-09-30T10:15:01.066Z,15.32
2022-09-30T10:17:31.375Z,15.30
2022-09-30T10:20:04.567Z,15.29
2022-09-30T10:22:35.182Z,15.29
2022-09-30T10:25:24.844Z,15.20
2022-09-30T10:27:57.136Z,15.22
2022-09-30T10:30:43.045Z,15.31
2022-09-30T10:33:20.401Z,15.23
2022-09-30T10:36:02.033Z,15.31
2022-09-30T10:38:34.886Z,15.33
2022-09-30T10:41:05.499Z,15.22
2022-09-30T10:43:41.021Z,15.26
2022-09-30T10:46:27.420Z,15.30
2022-09-30T10:48:58.106Z,15.28
2022-09-30T10:51:31.056Z,15.28
2022-09-30T10:54:01.307Z,15.32
2022-09-30T10:56:46.255Z,15.30
2022-09-30T10:59:35.612Z,15.36
2022-09-30T11:02:18.401Z,15.32
2022-09-30T11:04:54.023Z,15.25
2022-09-30T11:07:30.538Z,15.19
2022-09-30T11:10:06.160Z,15.25
2022-09-30T11:12:45.438Z,15.23
2022-09-30T11:15:21.442Z,15.27
2022-09-30T11:17:58.491Z,15.32
2022-09-30T11:20:31.202Z,15.27
2022-09-30T11:23:05.448Z,15.28
2022-09-30T11:25:44.515Z,15.22
2022-09-30T11:28:36.572Z,15.26
2022-09-30T11:31:17.859Z,15.32
2022-09-30T11:34:02.101Z,15.24
2022-09-30T11:36:42.992Z,15.19
2022-09-30T11:39:34.340Z,15.22
2022-09-30T11:42:11.361Z,15.12
2022-09-30T11:44:42.623Z,15.15
2022-09-30T11:47:30.402Z,15.08
2022-09-30T11:50:16.009Z,15.09
2022-09-30T11:52:57.176Z,15.09
2022-09-30T11:55:48.441Z,15.14
2022-09-30T11:58:40.380Z,15.11
2022-09-30T12:01:22.513Z,15.07
2022-09-30T12:03:59.686Z,15.05
2022-09-30T12:06:33.393Z,14.97
2022-09-30T12:09:08.992Z,14.98
2022-09-30T12:11:44.777Z,15.01
2022-09-30T12:14:20.955Z,14.96
2022-09-30T12:16:51.492Z,14.96
2022-09-30T12:19:25.949Z,14.93
2022-09-30T12:21:59.856Z,14.91
2022-09-30T12:24:37.144Z,14.91
2022-09-30T12:27:06.714Z,14.94
2022-09-30T12:29:58.345Z,14.91
2022-09-30T12:33:07.193Z,14.74
2022-09-30T12:36:03.747Z,14.70
2022-09-30T12:38:50.666Z,14.65
2022-09-30T12:41:40.602Z,14.60
2022-09-30T12:44:39.490Z,14.68
2022-09-30T12:47:26.456Z,14.76
2022-09-30T12:49:58.214Z,14.75
2022-09-30T12:52:27.984Z,14.71
2022-09-30T12:55:00.221Z,14.61
2022-09-30T12:57:32.366Z,14.58
2022-09-30T13:00:07.599Z,14.50
2022-09-30T13:02:41.981Z,14.46
2022-09-30T13:05:47.880Z,14.35
2022-09-30T13:08:52.661Z,14.20
2022-09-30T13:11:43.198Z,14.19
2022-09-30T13:14:26.180Z,14.27
2022-09-30T13:17:36.469Z,14.22
2022-09-30T13:20:44.992Z,14.13
2022-09-30T13:23:39.969Z,14.02
2022-09-30T13:26:34.724Z,13.87
2022-09-30T13:29:29.787Z,13.95
2022-09-30T13:32:05.774Z,13.94
2022-09-30T13:34:49.654Z,14.00
2022-09-30T13:37:40.568Z,14.11
2022-09-30T13:40:32.741Z,14.11
2022-09-30T13:43:16.800Z,14.10
2022-09-30T13:45:46.345Z,14.19
2022-09-30T13:48:21.042Z,14.23
2022-09-30T13:50:52.738Z,14.23
2022-09-30T13:53:30.901Z,14.31
2022-09-30T13:56:02.063Z,14.43
2022-09-30T13:58:52.963Z,14.42
2022-09-30T14:01:37.821Z,14.39
2022-09-30T14:04:24.643Z,14.31
2022-09-30T14:07:05.486Z,14.37
2022-09-30T14:09:55.940Z,14.41
2022-09-30T14:12:50.243Z,14.45
2022-09-30T14:15:44.002Z,14.51
2022-09-30T14:18:44.331Z,14.57
2022-09-30T14:21:28.668Z,14.61
2022-09-30T14:24:03.211Z,14.61
2022-09-30T14:26:48.979Z,14.65
2022-09-30T14:29:27.278Z,14.67
2022-09-30T14:31:56.725Z,14.64
2022-09-30T14:34:27.405Z,14.65
2022-09-30T14:36:56.610Z,14.68
2022-09-30T14:39:29.727Z,14.64
2022-09-30T14:42:02.168Z,14.54
2022-09-30T14:44:34.850Z,14.46
2022-09-30T14:47:05.671Z,14.40
2022-09-30T14:49:37.775Z,14.35
2022-09-30T14:52:06.871Z,14.31
2022-09-30T14:54:35.233Z,14.24
2022-09-30T14:57:18.253Z,14.17
2022-09-30T14:59:47.063Z,14.09
2022-09-30T15:02:20.515Z,14.16
2022-09-30T15:04:52.203Z,14.17
2022-09-30T15:07:20.438Z,14.18
2022-09-30T15:09:51.139Z,14.21
2022-09-30T15:12:23.397Z,14.22
2022-09-30T15:14:55.076Z,14.24
2022-09-30T15:17:27.611Z,14.18
2022-09-30T15:19:57.111Z,14.17
2022-09-30T15:22:28.100Z,14.19
2022-09-30T15:24:59.935Z,14.20
2022-09-30T15:27:32.181Z,14.19
2022-09-30T15:30:02.293Z,14.27
2022-09-30T15:32:33.015Z,14.29
2022-09-30T15:35:06.927Z,14.24
2022-09-30T15:37:35.726Z,14.18
2022-09-30T15:40:22.255Z,14.23
2022-09-30T15:42:59.753Z,14.17
2022-09-30T15:45:35.833Z,14.18
2022-09-30T15:48:08.051Z,14.18
2022-09-30T15:50:38.579Z,14.21
2022-09-30T15:53:15.731Z,14.16
2022-09-30T15:55:45.998Z,14.10
2022-09-30T15:58:41.506Z,14.03
2022-09-30T16:01:17.888Z,14.06
2022-09-30T16:03:53.330Z,13.96
2022-09-30T16:06:26.561Z,13.82
2022-09-30T16:09:01.451Z,13.75
2022-09-30T16:11:35.160Z,13.75
2022-09-30T16:14:07.309Z,13.75
2022-09-30T16:16:38.129Z,13.65
2022-09-30T16:19:07.501Z,13.57
2022-09-30T16:21:44.507Z,13.53
2022-09-30T16:24:57.221Z,13.48
2022-09-30T16:27:36.783Z,13.46
2022-09-30T16:30:13.937Z,13.47
2022-09-30T16:32:51.068Z,13.54
2022-09-30T16:35:24.731Z,13.51
2022-09-30T16:38:00.951Z,13.48
2022-09-30T16:40:30.512Z,13.48
2022-09-30T16:43:03.267Z,13.40
2022-09-30T16:45:35.773Z,13.38
2022-09-30T16:48:12.958Z,13.31
2022-09-30T16:50:45.736Z,13.32
2022-09-30T16:53:14.017Z,13.28
2022-09-30T16:55:43.051Z,13.40
2022-09-30T16:58:13.372Z,13.39
2022-09-30T17:00:45.472Z,13.41
2022-09-30T17:03:16.636Z,13.41
2022-09-30T17:05:53.433Z,13.38
2022-09-30T17:08:24.138Z,13.43
2022-09-30T17:10:52.568Z,13.42
2022-09-30T17:13:21.398Z,13.42
2022-09-30T17:15:52.703Z,13.33
2022-09-30T17:18:21.506Z,13.29
2022-09-30T17:20:53.106Z,13.28
2022-09-30T17:23:23.270Z,13.27
2022-09-30T17:25:51.411Z,13.24
2022-09-30T17:28:20.115Z,13.23
2022-09-30T17:30:50.764Z,13.24
2022-09-30T17:33:20.070Z,13.27
2022-09-30T17:36:00.622Z,13.28
2022-09-30T17:38:29.115Z,13.28
2022-09-30T17:41:14.735Z,13.27
2022-09-30T17:43:43.148Z,13.24
2022-09-30T17:46:13.453Z,13.27
2022-09-30T17:48:43.610Z,13.28
2022-09-30T17:51:12.002Z,13.24
2022-09-30T17:53:40.813Z,13.16
2022-09-30T17:56:18.741Z,13.22
2022-09-30T17:58:49.144Z,13.20
2022-09-30T18:01:21.577Z,13.25
2022-09-30T18:03:53.170Z,13.21
2022-09-30T18:06:21.899Z,13.28
2022-09-30T18:08:50.435Z,13.18
2022-09-30T18:11:21.575Z,13.17
2022-09-30T18:13:55.276Z,13.17
2022-09-30T18:16:25.716Z,13.17
2022-09-30T18:18:54.043Z,13.19
2022-09-30T18:21:22.276Z,13.26
2022-09-30T18:23:52.506Z,13.28
2022-09-30T18:26:21.022Z,13.24
2022-09-30T18:28:52.617Z,13.18
2022-09-30T18:31:37.952Z,13.15
2022-09-30T18:34:07.811Z,13.15
2022-09-30T18:36:37.361Z,13.19
2022-09-30T18:39:06.415Z,13.18
2022-09-30T18:41:36.067Z,13.19
2022-09-30T18:44:04.870Z,13.23
2022-09-30T18:46:34.571Z,13.29
2022-09-30T18:49:02.922Z,13.26
2022-09-30T18:51:31.744Z,13.23
2022-09-30T18:54:02.449Z,13.22
2022-09-30T18:56:33.142Z,13.23
2022-09-30T18:59:04.180Z,13.25
2022-09-30T19:01:33.284Z,13.19
2022-09-30T19:04:05.578Z,13.20
2022-09-30T19:06:33.892Z,13.22
2022-09-30T19:09:02.243Z,13.21
2022-09-30T19:11:31.705Z,13.22
2022-09-30T19:14:02.609Z,13.24
2022-09-30T19:16:35.281Z,13.24
2022-09-30T19:19:10.625Z,13.24
2022-09-30T19:21:40.658Z,13.25
2022-09-30T19:24:10.498Z,13.31
2022-09-30T19:26:40.611Z,13.34
2022-09-30T19:29:10.213Z,13.37
2022-09-30T19:31:40.853Z,13.44
2022-09-30T19:34:15.412Z,13.44
2022-09-30T19:36:51.878Z,13.43
2022-09-30T19:39:20.647Z,13.47
2022-09-30T19:41:48.862Z,13.50
2022-09-30T19:44:20.093Z,13.51
2022-09-30T19:46:50.397Z,13.50
2022-09-30T19:49:21.765Z,13.48
2022-09-30T19:51:52.386Z,13.58
2022-09-30T19:54:33.320Z,13.61
2022-09-30T19:57:06.612Z,13.58
2022-09-30T19:59:35.504Z,13.59
2022-09-30T20:02:03.869Z,13.64
2022-09-30T20:04:34.540Z,13.61
2022-09-30T20:07:02.679Z,13.66
2022-09-30T20:09:30.904Z,13.65
2022-09-30T20:11:59.445Z,13.65
2022-09-30T20:14:45.101Z,13.63
2022-09-30T20:17:13.565Z,13.58
2022-09-30T20:19:43.084Z,13.46
2022-09-30T20:22:11.489Z,13.56
2022-09-30T20:24:40.216Z,13.58
2022-09-30T20:27:08.659Z,13.51
2022-09-30T20:29:36.904Z,13.53
2022-09-30T20:32:05.188Z,13.50
2022-09-30T20:34:37.952Z,13.42
2022-09-30T20:37:08.786Z,13.40
2022-09-30T20:39:45.170Z,13.37
2022-09-30T20:42:41.960Z,13.28
2022-09-30T20:45:12.002Z,13.35
2022-09-30T20:47:41.990Z,13.33
2022-09-30T20:50:13.025Z,13.34
2022-09-30T20:52:45.605Z,13.33
2022-09-30T20:55:14.440Z,13.28
2022-09-30T20:57:44.655Z,13.22
2022-09-30T21:00:17.031Z,13.26
2022-09-30T21:02:46.294Z,13.20
2022-09-30T21:05:14.736Z,13.28
2022-09-30T21:07:43.160Z,13.25
2022-09-30T21:10:12.829Z,13.30
2022-09-30T21:12:43.656Z,13.30
2022-09-30T21:15:13.049Z,13.34
2022-09-30T21:17:45.527Z,13.30
2022-09-30T21:20:14.264Z,13.32
2022-09-30T21:22:43.112Z,13.30
2022-09-30T21:25:13.236Z,13.32
2022-09-30T21:27:43.539Z,13.32
2022-09-30T21:30:12.982Z,13.31
2022-09-30T21:32:43.945Z,13.24
2022-09-30T21:35:14.172Z,13.32
2022-09-30T21:37:42.526Z,13.30
2022-09-30T21:40:13.379Z,13.27
2022-09-30T21:42:42.153Z,13.22
2022-09-30T21:45:11.451Z,13.18
2022-09-30T21:47:39.882Z,13.17
2022-09-30T21:50:09.793Z,13.16
2022-09-30T21:52:39.587Z,13.10
2022-09-30T21:55:08.591Z,13.04
2022-09-30T21:57:38.696Z,12.96
2022-09-30T22:00:07.502Z,13.09
2022-09-30T22:02:36.648Z,13.02
2022-09-30T22:05:07.227Z,12.99
2022-09-30T22:07:35.666Z,12.94
2022-09-30T22:10:04.064Z,12.93
2022-09-30T22:12:33.846Z,12.98
2022-09-30T22:15:03.811Z,13.02
2022-09-30T22:17:32.157Z,12.98
2022-09-30T22:20:01.284Z,12.95
2022-09-30T22:22:29.507Z,12.91
2022-09-30T22:24:57.948Z,12.86
2022-09-30T22:27:28.363Z,12.86
2022-09-30T22:29:56.535Z,12.86
2022-09-30T22:32:26.552Z,12.83
2022-09-30T22:35:12.193Z,12.87
2022-09-30T22:38:03.113Z,12.82
2022-09-30T22:40:31.424Z,12.86
2022-09-30T22:42:59.882Z,12.87
2022-09-30T22:45:28.114Z,12.89
2022-09-30T22:47:58.784Z,12.87
2022-09-30T22:50:28.985Z,12.85
2022-09-30T22:52:58.230Z,12.87
2022-09-30T22:55:26.572Z,12.91
2022-09-30T22:57:54.978Z,12.85
2022-09-30T23:00:23.324Z,12.90
2022-09-30T23:02:53.064Z,12.84
2022-09-30T23:05:23.317Z,12.78
2022-09-30T23:07:54.244Z,12.74
2022-09-30T23:10:22.503Z,12.76
2022-09-30T23:12:52.261Z,12.73
2022-09-30T23:15:20.450Z,12.74
2022-09-30T23:17:49.121Z,12.76
2022-09-30T23:20:17.953Z,12.77
2022-09-30T23:22:47.720Z,12.79
2022-09-30T23:25:16.115Z,12.83
2022-09-30T23:27:49.233Z,12.77
2022-09-30T23:30:17.940Z,12.79
2022-09-30T23:32:46.030Z,12.79
2022-09-30T23:35:14.609Z,12.82
2022-09-30T23:37:42.793Z,12.82
2022-09-30T23:40:13.111Z,12.78
2022-09-30T23:42:41.548Z,12.75
2022-09-30T23:45:11.290Z,12.74
2022-09-30T23:47:39.752Z,12.75
2022-09-30T23:50:09.959Z,12.71
2022-09-30T23:52:38.768Z,12.69
2022-09-30T23:55:07.799Z,12.77
2022-09-30T23:57:37.458Z,12.76
